createdAt,value
2023-04-28T00:00:26.036Z,11.58
2023-04-28T00:01:26.056Z,11.58
2023-04-28T00:02:26.104Z,11.58
2023-04-28T00:03:26.118Z,11.58
2023-04-28T00:04:26.440Z,11.56
2023-04-28T00:05:26.204Z,11.56
2023-04-28T00:06:25.964Z,11.55
2023-04-28T00:07:25.920Z,11.52
2023-04-28T00:08:25.937Z,11.52
2023-04-28T00:09:25.885Z,11.51
2023-04-28T00:10:25.901Z,11.52
2023-04-28T00:11:25.876Z,11.49
2023-04-28T00:12:25.879Z,11.51
2023-04-28T00:13:25.885Z,11.51
2023-04-28T00:14:25.834Z,11.49
2023-04-28T00:15:25.830Z,11.49
2023-04-28T00:16:25.879Z,11.45
2023-04-28T00:17:25.904Z,11.48
2023-04-28T00:18:25.854Z,11.44
2023-04-28T00:19:25.767Z,11.45
2023-04-28T00:20:25.755Z,11.44
2023-04-28T00:21:25.744Z,11.44
2023-04-28T00:22:25.728Z,11.44
2023-04-28T00:23:25.744Z,11.44
2023-04-28T00:24:25.726Z,11.43
2023-04-28T00:25:25.692Z,11.40
2023-04-28T00:26:25.676Z,11.40
2023-04-28T00:27:25.661Z,11.38
2023-04-28T00:29:25.633Z,11.40
2023-04-28T00:30:25.626Z,11.41
2023-04-28T00:31:25.628Z,11.43
2023-04-28T00:32:25.634Z,11.41
2023-04-28T00:33:25.604Z,11.43
2023-04-28T00:34:25.578Z,11.44
2023-04-28T00:35:25.569Z,11.43
2023-04-28T00:36:25.546Z,11.43
2023-04-28T00:37:25.532Z,11.44
2023-04-28T00:38:25.577Z,11.44
2023-04-28T00:39:25.496Z,11.45
2023-04-28T00:40:25.484Z,11.48
2023-04-28T00:41:25.496Z,11.48
2023-04-28T00:42:25.463Z,11.48
2023-04-28T00:43:25.491Z,11.44
2023-04-28T00:44:25.436Z,11.44
2023-04-28T00:45:25.495Z,11.41
2023-04-28T00:46:25.415Z,11.41
2023-04-28T00:47:25.432Z,11.41
2023-04-28T00:48:25.418Z,11.41
2023-04-28T00:49:25.377Z,11.41
2023-04-28T00:50:25.341Z,11.40
2023-04-28T00:51:25.357Z,11.38
2023-04-28T00:52:25.336Z,11.38
2023-04-28T00:53:25.319Z,11.35
2023-04-28T00:54:25.428Z,11.37
2023-04-28T00:55:25.283Z,11.35
2023-04-28T00:56:25.281Z,11.35
2023-04-28T00:57:25.284Z,11.33
2023-04-28T00:58:25.252Z,11.34
2023-04-28T00:59:25.237Z,11.33
2023-04-28T01:00:25.235Z,11.31
2023-04-28T01:01:25.243Z,11.30
2023-04-28T01:02:25.326Z,11.30
2023-04-28T01:03:25.357Z,11.30
2023-04-28T01:04:25.281Z,11.25
2023-04-28T01:05:25.219Z,11.26
2023-04-28T01:06:25.135Z,11.26
2023-04-28T01:07:25.130Z,11.22
2023-04-28T01:08:25.142Z,11.23
2023-04-28T01:09:25.094Z,11.20
2023-04-28T01:10:25.079Z,11.20
2023-04-28T01:11:25.077Z,11.20
2023-04-28T01:12:25.057Z,11.20
2023-04-28T01:13:25.065Z,11.16
2023-04-28T01:14:25.035Z,11.16
2023-04-28T01:15:25.024Z,11.16
2023-04-28T01:16:25.064Z,11.13
2023-04-28T01:17:25.016Z,11.12
2023-04-28T01:18:25.014Z,11.12
2023-04-28T01:19:24.970Z,11.08
2023-04-28T01:20:24.957Z,11.08
2023-04-28T01:21:24.935Z,11.08
2023-04-28T01:22:24.935Z,11.07
2023-04-28T01:23:24.926Z,11.07
2023-04-28T01:24:24.913Z,11.05
2023-04-28T01:25:24.903Z,11.05
2023-04-28T01:26:24.909Z,11.04
2023-04-28T01:27:24.853Z,11.01
2023-04-28T01:28:24.854Z,11.01
2023-04-28T01:29:24.842Z,11.00
2023-04-28T01:30:24.958Z,11.01
2023-04-28T01:31:24.867Z,11.00
2023-04-28T01:32:24.845Z,10.95
2023-04-28T01:33:24.771Z,10.97
2023-04-28T01:34:24.786Z,10.95
2023-04-28T01:35:24.745Z,10.94
2023-04-28T01:36:24.727Z,10.94
2023-04-28T01:37:24.738Z,10.90
2023-04-28T01:38:24.727Z,10.86
2023-04-28T01:39:24.714Z,10.87
2023-04-28T01:40:24.701Z,10.84
2023-04-28T01:41:24.668Z,10.86
2023-04-28T01:42:24.673Z,10.87
2023-04-28T01:43:24.645Z,10.86
2023-04-28T01:44:24.640Z,10.83
2023-04-28T01:45:24.606Z,10.84
2023-04-28T01:46:24.610Z,10.82
2023-04-28T01:47:24.637Z,10.80
2023-04-28T01:48:24.575Z,10.79
2023-04-28T01:49:24.557Z,10.80
2023-04-28T01:50:24.563Z,10.79
2023-04-28T01:51:24.526Z,10.80
2023-04-28T01:52:24.554Z,10.76
2023-04-28T01:53:24.512Z,10.77
2023-04-28T01:54:24.485Z,10.76
2023-04-28T01:55:24.470Z,10.75
2023-04-28T01:56:24.466Z,10.75
2023-04-28T01:57:24.483Z,10.69
2023-04-28T01:58:24.458Z,10.68
2023-04-28T01:59:24.416Z,10.68
2023-04-28T02:00:24.409Z,10.67
2023-04-28T02:01:24.467Z,10.67
2023-04-28T02:02:24.472Z,10.62
2023-04-28T02:03:24.488Z,10.61
2023-04-28T02:04:24.373Z,10.59
2023-04-28T02:05:24.356Z,10.58
2023-04-28T02:06:24.326Z,10.57
2023-04-28T02:07:24.309Z,10.55
2023-04-28T02:08:24.325Z,10.51
2023-04-28T02:09:24.298Z,10.49
2023-04-28T02:10:24.276Z,10.53
2023-04-28T02:11:24.259Z,10.55
2023-04-28T02:12:24.275Z,10.57
2023-04-28T02:13:24.263Z,10.55
2023-04-28T02:14:24.218Z,10.55
2023-04-28T02:15:24.207Z,10.57
2023-04-28T02:16:24.264Z,10.57
2023-04-28T02:17:24.198Z,10.58
2023-04-28T02:18:24.194Z,10.58
2023-04-28T02:19:24.157Z,10.58
2023-04-28T02:20:24.146Z,10.58
2023-04-28T02:21:24.147Z,10.59
2023-04-28T02:22:24.145Z,10.61
2023-04-28T02:23:24.115Z,10.59
2023-04-28T02:24:24.084Z,10.59
2023-04-28T02:25:24.079Z,10.61
2023-04-28T02:26:24.075Z,10.61
2023-04-28T02:27:24.051Z,10.64
2023-04-28T02:28:24.053Z,10.64
2023-04-28T02:29:24.018Z,10.65
2023-04-28T02:30:24.004Z,10.67
2023-04-28T02:31:24.019Z,10.67
2023-04-28T02:32:24.005Z,10.67
2023-04-28T02:33:23.983Z,10.67
2023-04-28T02:34:23.961Z,10.64
2023-04-28T02:35:23.966Z,10.64
2023-04-28T02:36:23.932Z,10.61
2023-04-28T02:37:23.921Z,10.61
2023-04-28T02:38:23.923Z,10.61
2023-04-28T02:39:23.885Z,10.62
2023-04-28T02:40:23.880Z,10.62
2023-04-28T02:41:23.855Z,10.64
2023-04-28T02:42:23.844Z,10.65
2023-04-28T02:43:23.850Z,10.62
2023-04-28T02:44:23.825Z,10.65
2023-04-28T02:45:23.806Z,10.65
2023-04-28T02:46:23.830Z,10.65
2023-04-28T02:47:23.778Z,10.65
2023-04-28T02:48:23.793Z,10.64
2023-04-28T02:49:23.752Z,10.64
2023-04-28T02:50:23.734Z,10.64
2023-04-28T02:51:23.726Z,10.65
2023-04-28T02:52:23.725Z,10.64
2023-04-28T02:53:23.714Z,10.64
2023-04-28T02:54:23.684Z,10.64
2023-04-28T02:55:23.702Z,10.62
2023-04-28T02:56:23.652Z,10.64
2023-04-28T02:57:23.669Z,10.65
2023-04-28T02:58:23.656Z,10.68
2023-04-28T02:59:23.616Z,10.65
2023-04-28T03:00:23.607Z,10.65
2023-04-28T03:01:23.695Z,10.64
2023-04-28T03:02:23.730Z,10.62
2023-04-28T03:03:23.651Z,10.59
2023-04-28T03:04:23.642Z,10.62
2023-04-28T03:05:23.547Z,10.64
2023-04-28T03:06:23.529Z,10.64
2023-04-28T03:07:23.523Z,10.65
2023-04-28T03:08:23.502Z,10.65
2023-04-28T03:09:23.520Z,10.65
2023-04-28T03:10:23.532Z,10.62
2023-04-28T03:11:23.461Z,10.64
2023-04-28T03:12:23.445Z,10.67
2023-04-28T03:13:23.459Z,10.62
2023-04-28T03:14:23.472Z,10.61
2023-04-28T03:15:23.406Z,10.61
2023-04-28T03:16:23.456Z,10.61
2023-04-28T03:17:23.420Z,10.59
2023-04-28T03:18:23.385Z,10.59
2023-04-28T03:19:23.378Z,10.57
2023-04-28T03:20:23.355Z,10.58
2023-04-28T03:21:23.327Z,10.55
2023-04-28T03:22:23.306Z,10.55
2023-04-28T03:23:23.297Z,10.53
2023-04-28T03:24:23.333Z,10.53
2023-04-28T03:25:23.276Z,10.49
2023-04-28T03:26:23.255Z,10.46
2023-04-28T03:27:23.246Z,10.42
2023-04-28T03:28:23.228Z,10.41
2023-04-28T03:29:23.284Z,10.39
2023-04-28T03:30:23.191Z,10.38
2023-04-28T03:31:23.206Z,10.38
2023-04-28T03:32:23.265Z,10.31
2023-04-28T03:33:23.153Z,10.33
2023-04-28T03:34:23.291Z,10.33
2023-04-28T03:35:23.133Z,10.34
2023-04-28T03:36:23.113Z,10.31
2023-04-28T03:37:23.107Z,10.33
2023-04-28T03:38:23.101Z,10.34
2023-04-28T03:39:23.095Z,10.30
2023-04-28T03:40:23.056Z,10.27
2023-04-28T03:41:23.051Z,10.28
2023-04-28T03:42:23.027Z,10.25
2023-04-28T03:43:23.021Z,10.24
2023-04-28T03:44:23.022Z,10.23
2023-04-28T03:45:23.156Z,10.20
2023-04-28T03:46:23.011Z,10.18
2023-04-28T03:47:22.971Z,10.21
2023-04-28T03:48:22.988Z,10.18
2023-04-28T03:49:22.954Z,10.18
2023-04-28T03:50:25.355Z,10.10
2023-04-28T03:51:22.917Z,10.06
2023-04-28T03:52:22.893Z,10.05
2023-04-28T03:53:22.907Z,10.03
2023-04-28T03:54:22.889Z,10.05
2023-04-28T03:55:22.853Z,10.06
2023-04-28T03:56:22.847Z,10.09
2023-04-28T03:57:22.833Z,10.09
2023-04-28T03:58:22.813Z,10.09
2023-04-28T03:59:22.826Z,10.07
2023-04-28T04:00:22.792Z,10.06
2023-04-28T04:01:22.781Z,10.07
2023-04-28T04:02:22.946Z,10.06
2023-04-28T04:03:22.960Z,10.09
2023-04-28T04:04:23.526Z,10.10
2023-04-28T04:05:22.814Z,10.12
2023-04-28T04:06:22.717Z,10.13
2023-04-28T04:07:22.720Z,10.13
2023-04-28T04:08:22.731Z,10.17
2023-04-28T04:09:22.699Z,10.13
2023-04-28T04:10:22.673Z,10.13
2023-04-28T04:11:22.657Z,10.12
2023-04-28T04:12:22.630Z,10.13
2023-04-28T04:13:22.623Z,10.10
2023-04-28T04:14:22.628Z,10.10
2023-04-28T04:15:22.590Z,10.10
2023-04-28T04:16:22.789Z,10.09
2023-04-28T04:17:22.654Z,10.10
2023-04-28T04:18:22.549Z,10.06
2023-04-28T04:19:22.543Z,10.07
2023-04-28T04:20:22.524Z,10.10
2023-04-28T04:21:22.518Z,10.10
2023-04-28T04:22:22.490Z,10.10
2023-04-28T04:23:22.475Z,10.12
2023-04-28T04:24:22.483Z,10.10
2023-04-28T04:25:23.449Z,10.12
2023-04-28T04:26:22.430Z,10.13
2023-04-28T04:27:22.422Z,10.15
2023-04-28T04:28:22.399Z,10.18
2023-04-28T04:29:22.420Z,10.20
2023-04-28T04:30:22.376Z,10.23
2023-04-28T04:31:22.484Z,10.23
2023-04-28T04:32:22.368Z,10.25
2023-04-28T04:33:22.343Z,10.28
2023-04-28T04:34:22.349Z,10.30
2023-04-28T04:35:22.315Z,10.31
2023-04-28T04:36:22.298Z,10.33
2023-04-28T04:37:22.278Z,10.33
2023-04-28T04:38:22.272Z,10.31
2023-04-28T04:39:22.281Z,10.28
2023-04-28T04:40:22.260Z,10.28
2023-04-28T04:41:22.231Z,10.25
2023-04-28T04:42:24.690Z,10.24
2023-04-28T04:43:22.207Z,10.24
2023-04-28T04:44:22.207Z,10.23
2023-04-28T04:45:22.201Z,10.23
2023-04-28T04:46:22.167Z,10.20
2023-04-28T04:47:22.148Z,10.21
2023-04-28T04:48:22.169Z,10.20
2023-04-28T04:49:22.139Z,10.20
2023-04-28T04:50:22.105Z,10.20
2023-04-28T04:51:22.085Z,10.18
2023-04-28T04:52:22.095Z,10.20
2023-04-28T04:53:22.068Z,10.18
2023-04-28T04:54:22.073Z,10.18
2023-04-28T04:55:22.046Z,10.18
2023-04-28T04:56:22.039Z,10.20
2023-04-28T04:57:22.017Z,10.18
2023-04-28T04:58:22.024Z,10.17
2023-04-28T04:59:21.985Z,10.17
2023-04-28T05:00:21.984Z,10.15
2023-04-28T05:01:21.955Z,10.23
2023-04-28T05:02:21.998Z,10.53
2023-04-28T05:03:22.174Z,10.95
2023-04-28T05:04:22.474Z,11.33
2023-04-28T05:05:23.014Z,11.74
2023-04-28T05:06:21.904Z,12.12
2023-04-28T05:07:21.883Z,12.40
2023-04-28T05:08:21.893Z,12.61
2023-04-28T05:09:21.865Z,12.69
2023-04-28T05:10:21.836Z,12.84
2023-04-28T05:11:21.837Z,12.99
2023-04-28T05:12:21.814Z,13.05
2023-04-28T05:13:21.820Z,13.13
2023-04-28T05:14:21.779Z,13.21
2023-04-28T05:15:21.770Z,13.33
2023-04-28T05:16:21.806Z,13.33
2023-04-28T05:17:21.755Z,13.39
2023-04-28T05:18:21.753Z,13.47
2023-04-28T05:19:21.773Z,13.50
2023-04-28T05:20:21.724Z,13.52
2023-04-28T05:21:21.692Z,13.55
2023-04-28T05:22:21.682Z,13.54
2023-04-28T05:23:21.714Z,13.46
2023-04-28T05:24:21.683Z,13.33
2023-04-28T05:25:21.653Z,13.17
2023-04-28T05:26:21.640Z,13.08
2023-04-28T05:27:21.613Z,12.99
2023-04-28T05:28:22.179Z,12.91
2023-04-28T05:29:21.635Z,12.81
2023-04-28T05:30:21.797Z,12.69
2023-04-28T05:31:21.622Z,12.66
2023-04-28T05:32:21.666Z,12.72
2023-04-28T05:33:21.703Z,12.69
2023-04-28T05:34:21.574Z,12.72
2023-04-28T05:35:21.511Z,12.78
2023-04-28T05:36:21.491Z,12.86
2023-04-28T05:37:21.482Z,12.86
2023-04-28T05:38:23.300Z,12.83
2023-04-28T05:39:21.471Z,12.65
2023-04-28T05:40:21.455Z,12.36
2023-04-28T05:41:21.424Z,12.07
2023-04-28T05:42:21.416Z,11.77
2023-04-28T05:43:21.406Z,11.51
2023-04-28T05:44:21.406Z,11.27
2023-04-28T05:45:22.133Z,11.07
2023-04-28T05:46:30.054Z,10.83
2023-04-28T05:47:22.358Z,10.68
2023-04-28T05:48:21.333Z,10.57
2023-04-28T05:49:21.333Z,10.48
2023-04-28T05:50:21.302Z,10.42
2023-04-28T05:51:21.302Z,10.36
2023-04-28T05:52:21.270Z,10.28
2023-04-28T05:53:21.283Z,10.24
2023-04-28T05:54:21.270Z,10.20
2023-04-28T05:55:21.254Z,10.18
2023-04-28T05:56:21.226Z,10.12
2023-04-28T05:57:21.227Z,10.09
2023-04-28T05:58:21.203Z,10.05
2023-04-28T05:59:21.199Z,10.05
2023-04-28T06:00:21.184Z,10.06
2023-04-28T06:01:21.173Z,10.06
2023-04-28T06:02:22.780Z,10.05
2023-04-28T06:03:21.260Z,10.07
2023-04-28T06:04:21.534Z,10.06
2023-04-28T06:05:21.353Z,10.06
2023-04-28T06:06:21.121Z,10.06
2023-04-28T06:07:21.079Z,10.03
2023-04-28T06:08:21.064Z,10.05
2023-04-28T06:09:21.086Z,10.05
2023-04-28T06:10:21.038Z,10.05
2023-04-28T06:11:21.040Z,10.05
2023-04-28T06:12:21.006Z,10.02
2023-04-28T06:13:21.003Z,10.00
2023-04-28T06:14:21.005Z,9.99
2023-04-28T06:15:20.992Z,9.99
2023-04-28T06:16:21.010Z,9.97
2023-04-28T06:17:20.953Z,10.00
2023-04-28T06:18:20.949Z,10.02
2023-04-28T06:19:20.920Z,10.03
2023-04-28T06:20:20.906Z,10.00
2023-04-28T06:21:20.887Z,10.02
2023-04-28T06:22:20.882Z,10.02
2023-04-28T06:23:20.883Z,10.02
2023-04-28T06:24:20.852Z,10.05
2023-04-28T06:25:20.833Z,10.07
2023-04-28T06:26:20.823Z,10.07
2023-04-28T06:27:20.810Z,10.09
2023-04-28T06:28:20.839Z,10.10
2023-04-28T06:29:20.791Z,10.09
2023-04-28T06:30:20.771Z,10.05
2023-04-28T06:31:20.807Z,10.06
2023-04-28T06:32:20.748Z,10.06
2023-04-28T06:33:20.749Z,10.05
2023-04-28T06:34:20.724Z,10.03
2023-04-28T06:35:20.702Z,10.05
2023-04-28T06:36:20.693Z,10.05
2023-04-28T06:37:20.691Z,10.07
2023-04-28T06:38:20.689Z,10.07
2023-04-28T06:39:20.644Z,10.07
2023-04-28T06:40:20.641Z,10.09
2023-04-28T06:41:20.632Z,10.09
2023-04-28T06:42:20.612Z,10.10
2023-04-28T06:43:20.609Z,10.12
2023-04-28T06:44:20.575Z,10.13
2023-04-28T06:45:20.561Z,10.10
2023-04-28T06:46:20.586Z,10.06
2023-04-28T06:47:20.535Z,10.09
2023-04-28T06:48:20.541Z,10.09
2023-04-28T06:49:20.520Z,10.10
2023-04-28T06:50:20.503Z,10.13
2023-04-28T06:51:20.486Z,10.12
2023-04-28T06:52:22.860Z,10.13
2023-04-28T06:53:21.485Z,10.15
2023-04-28T06:54:20.500Z,10.13
2023-04-28T06:55:20.427Z,10.13
2023-04-28T06:56:20.467Z,10.12
2023-04-28T06:57:20.414Z,10.13
2023-04-28T06:58:20.405Z,10.12
2023-04-28T06:59:20.370Z,10.12
2023-04-28T07:00:20.366Z,10.10
2023-04-28T07:01:20.487Z,10.12
2023-04-28T07:02:20.400Z,10.17
2023-04-28T07:03:20.497Z,10.18
2023-04-28T07:04:20.838Z,10.20
2023-04-28T07:05:20.292Z,10.20
2023-04-28T07:06:20.292Z,10.21
2023-04-28T07:07:20.266Z,10.20
2023-04-28T07:08:20.325Z,10.21
2023-04-28T07:09:20.230Z,10.23
2023-04-28T07:10:20.224Z,10.25
2023-04-28T07:11:20.225Z,10.27
2023-04-28T07:12:20.295Z,10.28
2023-04-28T07:13:20.224Z,10.30
2023-04-28T07:14:20.181Z,10.30
2023-04-28T07:15:20.156Z,10.31
2023-04-28T07:16:20.170Z,10.24
2023-04-28T07:17:20.137Z,10.18
2023-04-28T07:18:20.125Z,10.17
2023-04-28T07:19:20.116Z,10.13
2023-04-28T07:20:20.090Z,10.10
2023-04-28T07:21:20.090Z,10.06
2023-04-28T07:22:20.068Z,10.00
2023-04-28T07:23:20.073Z,9.99
2023-04-28T07:24:20.040Z,9.97
2023-04-28T07:25:20.032Z,9.95
2023-04-28T07:26:20.008Z,9.90
2023-04-28T07:27:19.999Z,9.90
2023-04-28T07:28:20.008Z,9.91
2023-04-28T07:29:19.965Z,9.91
2023-04-28T07:31:20.975Z,9.94
2023-04-28T07:32:19.972Z,9.99
2023-04-28T07:33:20.057Z,10.03
2023-04-28T07:34:19.904Z,10.03
2023-04-28T07:35:19.902Z,10.07
2023-04-28T07:36:19.870Z,10.10
2023-04-28T07:37:19.882Z,10.12
2023-04-28T07:38:19.895Z,10.12
2023-04-28T07:39:19.840Z,10.15
2023-04-28T07:40:19.822Z,10.18
2023-04-28T07:41:19.828Z,10.17
2023-04-28T07:42:19.798Z,10.15
2023-04-28T07:43:19.799Z,10.17
2023-04-28T07:44:20.151Z,10.12
2023-04-28T07:45:19.759Z,10.12
2023-04-28T07:46:19.778Z,10.09
2023-04-28T07:47:19.741Z,10.12
2023-04-28T07:48:19.795Z,10.13
2023-04-28T07:49:19.702Z,10.15
2023-04-28T07:50:19.689Z,10.20
2023-04-28T07:51:19.684Z,10.23
2023-04-28T07:52:19.656Z,10.23
2023-04-28T07:53:19.669Z,10.25
2023-04-28T07:54:19.884Z,10.24
2023-04-28T07:55:19.624Z,10.25
2023-04-28T07:56:19.612Z,10.27
2023-04-28T07:57:19.599Z,10.30
2023-04-28T07:58:19.591Z,10.31
2023-04-28T07:59:19.559Z,10.33
2023-04-28T08:00:19.559Z,10.36
2023-04-28T08:01:19.533Z,10.39
2023-04-28T08:02:19.585Z,10.42
2023-04-28T08:03:19.802Z,10.45
2023-04-28T08:04:20.082Z,10.48
2023-04-28T08:05:19.761Z,10.49
2023-04-28T08:06:19.463Z,10.53
2023-04-28T08:07:19.451Z,10.57
2023-04-28T08:08:19.461Z,10.58
2023-04-28T08:09:19.424Z,10.58
2023-04-28T08:10:19.415Z,10.59
2023-04-28T08:11:19.384Z,10.58
2023-04-28T08:12:19.389Z,10.58
2023-04-28T08:13:19.383Z,10.58
2023-04-28T08:14:19.457Z,10.59
2023-04-28T08:15:19.336Z,10.64
2023-04-28T08:16:19.421Z,10.64
2023-04-28T08:17:19.353Z,10.68
2023-04-28T08:18:19.392Z,10.69
2023-04-28T08:19:19.281Z,10.72
2023-04-28T08:20:20.053Z,10.75
2023-04-28T08:21:19.255Z,10.76
2023-04-28T08:22:19.241Z,10.80
2023-04-28T08:23:19.253Z,10.82
2023-04-28T08:24:19.250Z,10.84
2023-04-28T08:25:19.201Z,10.84
2023-04-28T08:26:19.206Z,10.86
2023-04-28T08:27:19.169Z,10.84
2023-04-28T08:28:19.182Z,10.86
2023-04-28T08:29:19.154Z,10.90
2023-04-28T08:30:19.146Z,10.94
2023-04-28T08:31:19.155Z,10.94
2023-04-28T08:32:19.119Z,10.94
2023-04-28T08:33:19.140Z,10.95
2023-04-28T08:34:19.461Z,10.98
2023-04-28T08:35:19.093Z,11.00
2023-04-28T08:36:19.104Z,11.00
2023-04-28T08:37:19.037Z,11.01
2023-04-28T08:38:19.105Z,11.04
2023-04-28T08:39:19.031Z,11.05
2023-04-28T08:40:19.146Z,11.07
2023-04-28T08:41:18.991Z,11.07
2023-04-28T08:42:18.985Z,11.05
2023-04-28T08:43:18.964Z,11.04
2023-04-28T08:44:19.283Z,11.04
2023-04-28T08:45:18.932Z,11.02
2023-04-28T08:46:18.945Z,11.02
2023-04-28T08:47:18.912Z,11.01
2023-04-28T08:48:18.924Z,11.01
2023-04-28T08:49:19.042Z,11.02
2023-04-28T08:50:19.052Z,11.05
2023-04-28T08:51:18.925Z,11.04
2023-04-28T08:52:18.912Z,11.05
2023-04-28T08:53:18.917Z,11.08
2023-04-28T08:54:26.653Z,11.08
2023-04-28T08:55:19.810Z,11.12
2023-04-28T08:56:18.796Z,11.13
2023-04-28T08:57:18.784Z,11.16
2023-04-28T08:58:18.775Z,11.16
2023-04-28T08:59:18.758Z,11.16
2023-04-28T09:00:18.789Z,11.16
2023-04-28T09:01:18.774Z,11.16
2023-04-28T09:02:18.815Z,11.15
2023-04-28T09:03:18.974Z,11.16
2023-04-28T09:04:19.568Z,11.19
2023-04-28T09:05:18.909Z,11.25
2023-04-28T09:06:18.668Z,11.23
2023-04-28T09:07:18.639Z,11.26
2023-04-28T09:08:18.636Z,11.26
2023-04-28T09:09:18.668Z,11.26
2023-04-28T09:10:18.799Z,11.30
2023-04-28T09:11:18.609Z,11.33
2023-04-28T09:12:18.610Z,11.35
2023-04-28T09:13:18.682Z,11.40
2023-04-28T09:14:18.813Z,11.45
2023-04-28T09:15:18.523Z,11.51
2023-04-28T09:16:18.563Z,11.55
2023-04-28T09:17:18.500Z,11.58
2023-04-28T09:18:18.498Z,11.60
2023-04-28T09:19:18.504Z,11.60
2023-04-28T09:20:18.472Z,11.63
2023-04-28T09:21:18.454Z,11.65
2023-04-28T09:22:26.860Z,11.65
2023-04-28T09:23:19.418Z,11.63
2023-04-28T09:24:18.663Z,11.65
2023-04-28T09:25:18.398Z,11.65
2023-04-28T09:26:18.396Z,11.65
2023-04-28T09:27:18.370Z,11.63
2023-04-28T09:28:18.371Z,11.67
2023-04-28T09:29:18.367Z,11.71
2023-04-28T09:30:18.424Z,11.77
2023-04-28T09:31:18.316Z,11.80
2023-04-28T09:32:18.539Z,11.85
2023-04-28T09:33:18.343Z,11.86
2023-04-28T09:34:18.402Z,11.81
2023-04-28T09:35:18.259Z,11.83
2023-04-28T09:36:18.256Z,11.80
2023-04-28T09:37:18.227Z,11.81
2023-04-28T09:38:18.244Z,11.81
2023-04-28T09:39:18.208Z,11.85
2023-04-28T09:40:18.235Z,11.88
2023-04-28T09:41:18.219Z,11.89
2023-04-28T09:42:18.201Z,11.93
2023-04-28T09:43:21.869Z,11.97
2023-04-28T09:44:18.489Z,12.03
2023-04-28T09:45:18.171Z,12.10
2023-04-28T09:46:18.188Z,12.12
2023-04-28T09:47:18.113Z,12.17
2023-04-28T09:48:18.117Z,12.21
2023-04-28T09:49:18.200Z,12.25
2023-04-28T09:50:18.069Z,12.26
2023-04-28T09:51:18.056Z,12.28
2023-04-28T09:52:18.059Z,12.30
2023-04-28T09:53:18.053Z,12.30
2023-04-28T09:54:18.024Z,12.35
2023-04-28T09:55:18.052Z,12.37
2023-04-28T09:56:18.000Z,12.40
2023-04-28T09:57:17.986Z,12.43
2023-04-28T09:58:17.970Z,12.44
2023-04-28T09:59:17.968Z,12.43
2023-04-28T10:00:17.937Z,12.44
2023-04-28T10:01:17.974Z,12.40
2023-04-28T10:02:41.914Z,12.44
2023-04-28T10:03:19.965Z,12.45
2023-04-28T10:04:18.036Z,12.51
2023-04-28T10:05:18.058Z,12.53
2023-04-28T10:06:17.871Z,12.57
2023-04-28T10:07:17.852Z,12.58
2023-04-28T10:08:17.830Z,12.65
2023-04-28T10:09:17.853Z,12.70
2023-04-28T10:10:17.823Z,12.78
2023-04-28T10:11:17.786Z,12.84
2023-04-28T10:12:17.791Z,12.88
2023-04-28T10:13:17.782Z,12.95
2023-04-28T10:14:17.797Z,12.98
2023-04-28T10:15:17.732Z,12.99
2023-04-28T10:16:17.758Z,13.06
2023-04-28T10:17:17.702Z,13.13
2023-04-28T10:18:17.702Z,13.16
2023-04-28T10:19:17.694Z,13.20
2023-04-28T10:20:17.679Z,13.24
2023-04-28T10:21:17.661Z,13.28
2023-04-28T10:22:17.654Z,13.27
2023-04-28T10:23:17.631Z,13.28
2023-04-28T10:24:17.638Z,13.33
2023-04-28T10:25:17.609Z,13.39
2023-04-28T10:26:17.686Z,13.39
2023-04-28T10:27:17.583Z,13.36
2023-04-28T10:28:17.589Z,13.37
2023-04-28T10:29:17.566Z,13.39
2023-04-28T10:31:17.667Z,13.45
2023-04-28T10:32:17.520Z,13.47
2023-04-28T10:33:17.505Z,13.50
2023-04-28T10:34:17.499Z,13.49
2023-04-28T10:35:17.492Z,13.55
2023-04-28T10:36:21.506Z,13.70
2023-04-28T10:37:18.457Z,13.80
2023-04-28T10:38:17.426Z,13.86
2023-04-28T10:39:17.453Z,13.86
2023-04-28T10:40:17.397Z,13.89
2023-04-28T10:41:17.400Z,13.91
2023-04-28T10:42:17.385Z,13.93
2023-04-28T10:43:17.375Z,13.93
2023-04-28T10:44:17.381Z,13.89
2023-04-28T10:45:17.347Z,13.79
2023-04-28T10:46:17.336Z,13.78
2023-04-28T10:47:17.314Z,13.78
2023-04-28T10:48:17.297Z,13.76
2023-04-28T10:49:17.296Z,13.76
2023-04-28T10:50:18.683Z,13.71
2023-04-28T10:51:17.279Z,13.73
2023-04-28T10:52:17.242Z,13.75
2023-04-28T10:53:17.232Z,13.76
2023-04-28T10:54:17.219Z,13.79
2023-04-28T10:55:22.209Z,13.80
2023-04-28T10:56:18.190Z,13.85
2023-04-28T10:57:17.207Z,13.89
2023-04-28T10:58:17.158Z,13.93
2023-04-28T10:59:17.154Z,13.95
2023-04-28T11:00:17.160Z,14.00
2023-04-28T11:01:17.164Z,14.03
2023-04-28T11:02:17.229Z,14.07
2023-04-28T11:03:17.179Z,14.08
2023-04-28T11:04:17.253Z,14.11
2023-04-28T11:05:17.216Z,14.08
2023-04-28T11:06:17.049Z,14.12
2023-04-28T11:07:17.046Z,14.13
2023-04-28T11:08:17.021Z,14.16
2023-04-28T11:09:17.031Z,14.18
2023-04-28T11:10:16.998Z,14.22
2023-04-28T11:11:16.993Z,14.26
2023-04-28T11:12:16.965Z,14.38
2023-04-28T11:13:16.959Z,14.44
2023-04-28T11:14:16.953Z,14.51
2023-04-28T11:15:16.929Z,14.53
2023-04-28T11:16:16.959Z,14.58
2023-04-28T11:17:16.909Z,14.55
2023-04-28T11:18:16.890Z,14.51
2023-04-28T11:19:16.888Z,14.56
2023-04-28T11:20:16.855Z,14.61
2023-04-28T11:21:16.848Z,14.73
2023-04-28T11:22:16.890Z,14.86
2023-04-28T11:23:16.815Z,14.97
2023-04-28T11:24:16.837Z,15.07
2023-04-28T11:25:16.786Z,15.23
2023-04-28T11:26:16.778Z,15.32
2023-04-28T11:27:16.756Z,15.37
2023-04-28T11:28:16.759Z,15.35
2023-04-28T11:29:16.761Z,15.39
2023-04-28T11:30:16.728Z,15.37
2023-04-28T11:31:16.750Z,15.39
2023-04-28T11:32:16.894Z,15.41
2023-04-28T11:33:16.722Z,15.41
2023-04-28T11:34:16.706Z,15.44
2023-04-28T11:35:16.671Z,15.44
2023-04-28T11:36:16.648Z,15.41
2023-04-28T11:37:16.770Z,15.43
2023-04-28T11:38:16.601Z,15.47
2023-04-28T11:39:16.619Z,15.52
2023-04-28T11:40:16.579Z,15.55
2023-04-28T11:41:16.604Z,15.60
2023-04-28T11:42:16.552Z,15.66
2023-04-28T11:43:16.549Z,15.67
2023-04-28T11:44:16.560Z,15.63
2023-04-28T11:45:16.523Z,15.69
2023-04-28T11:46:16.537Z,15.70
2023-04-28T11:47:16.494Z,15.69
2023-04-28T11:48:16.469Z,15.70
2023-04-28T11:49:16.480Z,15.70
2023-04-28T11:50:16.444Z,15.69
2023-04-28T11:51:16.433Z,15.70
2023-04-28T11:52:16.430Z,15.73
2023-04-28T11:53:16.411Z,15.81
2023-04-28T11:54:16.419Z,15.85
2023-04-28T11:55:16.400Z,15.98
2023-04-28T11:56:16.378Z,16.02
2023-04-28T11:57:16.358Z,16.12
2023-04-28T11:58:16.344Z,16.22
2023-04-28T11:59:16.353Z,16.36
2023-04-28T12:00:16.320Z,16.47
2023-04-28T12:01:16.313Z,16.58
2023-04-28T12:02:16.340Z,16.61
2023-04-28T12:03:16.427Z,16.68
2023-04-28T12:04:16.493Z,16.76
2023-04-28T12:05:16.309Z,16.80
2023-04-28T12:06:16.356Z,16.84
2023-04-28T12:07:16.260Z,16.92
2023-04-28T12:08:16.227Z,16.98
2023-04-28T12:09:16.212Z,17.04
2023-04-28T12:10:16.235Z,17.12
2023-04-28T12:11:18.320Z,17.22
2023-04-28T12:12:17.267Z,17.39
2023-04-28T12:13:16.166Z,17.49
2023-04-28T12:14:16.125Z,17.44
2023-04-28T12:15:17.047Z,17.44
2023-04-28T12:16:16.169Z,17.57
2023-04-28T12:17:16.088Z,17.66
2023-04-28T12:18:16.072Z,17.76
2023-04-28T12:19:16.094Z,17.87
2023-04-28T12:20:16.064Z,17.91
2023-04-28T12:21:16.033Z,17.88
2023-04-28T12:22:16.018Z,17.79
2023-04-28T12:23:16.038Z,17.86
2023-04-28T12:24:16.009Z,17.87
2023-04-28T12:25:16.014Z,17.94
2023-04-28T12:26:15.966Z,17.84
2023-04-28T12:27:15.967Z,17.87
2023-04-28T12:28:15.958Z,17.93
2023-04-28T12:29:15.935Z,17.95
2023-04-28T12:30:15.925Z,18.00
2023-04-28T12:31:15.948Z,18.02
2023-04-28T12:32:15.904Z,18.11
2023-04-28T12:33:15.896Z,18.18
2023-04-28T12:34:15.850Z,18.28
2023-04-28T12:35:15.878Z,18.39
2023-04-28T12:36:15.839Z,18.46
2023-04-28T12:37:15.884Z,18.58
2023-04-28T12:38:15.805Z,18.63
2023-04-28T12:39:15.813Z,18.70
2023-04-28T12:40:15.813Z,18.68
2023-04-28T12:41:15.773Z,18.53
2023-04-28T12:42:15.759Z,18.46
2023-04-28T12:43:15.739Z,18.42
2023-04-28T12:44:15.732Z,18.28
2023-04-28T12:45:15.744Z,18.21
2023-04-28T12:46:22.880Z,18.11
2023-04-28T12:47:15.686Z,18.03
2023-04-28T12:48:15.681Z,17.95
2023-04-28T12:49:15.689Z,17.88
2023-04-28T12:50:15.737Z,17.86
2023-04-28T12:51:15.639Z,17.80
2023-04-28T12:52:15.618Z,17.80
2023-04-28T12:53:15.618Z,17.78
2023-04-28T12:54:15.605Z,17.72
2023-04-28T12:55:15.618Z,17.68
2023-04-28T12:56:15.570Z,17.65